Time,TemperatureF,DewpointF,PressureIn,WindDirection,WindDirectionDegrees,WindSpeedMPH,WindSpeedGustMPH,Humidity,HourlyPrecipIn,Conditions,Clouds,dailyrainin,SoftwareType,DateUTC
2013-06-17 00:08:00,83.2,78.0,30.02,NNW,346,1.0,-999.0,83,-99.99,,,0.00,weatherlink.com 1.10,2013-06-17 04:08:00,
2013-06-17 00:23:00,83.1,78.0,30.01,NNW,346,2.0,-999.0,84,-99.99,,,0.00,weatherlink.com 1.10,2013-06-17 04:23:00,
2013-06-17 00:38:00,83.1,78.0,30.01,NNW,345,2.0,-999.0,84,-99.99,,,0.00,weatherlink.com 1.10,2013-06-17 04:38:00,
2013-06-17 00:53:00,83.1,78.0,30.01,NNW,345,2.0,-999.0,84,-99.99,,,0.00,weatherlink.com 1.10,2013-06-17 04:53:00,
2013-06-17 01:08:00,82.3,78.0,30.02,East,95,5.0,-999.0,86,-99.99,,,0.00,weatherlink.com 1.10,2013-06-17 05:08:00,
2013-06-17 01:23:00,81.5,78.0,30.02,East,93,4.0,-999.0,88,-99.99,,,0.00,weatherlink.com 1.10,2013-06-17 05:23:00,
2013-06-17 01:38:00,81.4,78.0,30.02,East,98,4.0,-999.0,88,-99.99,,,0.00,weatherlink.com 1.10,2013-06-17 05:38:00,
2013-06-17 01:53:00,81.1,77.0,30.01,East,98,2.0,-999.0,86,-99.99,,,0.00,weatherlink.com 1.10,2013-06-17 05:53:00,
2013-06-17 02:08:00,81.1,77.0,30.00,East,98,0.0,-999.0,86,-99.99,,,0.00,weatherlink.com 1.10,2013-06-17 06:08:00,
2013-06-17 02:23:00,81.1,77.0,29.99,East,98,3.0,-999.0,86,-99.99,,,0.00,weatherlink.com 1.10,2013-06-17 06:23:00,
2013-06-17 02:38:00,81.0,77.0,29.98,East,98,1.0,-999.0,86,-99.99,,,0.00,weatherlink.com 1.10,2013-06-17 06:38:00,
2013-06-17 02:53:00,81.0,77.0,29.97,ESE,104,1.0,-999.0,86,-99.99,,,0.00,weatherlink.com 1.10,2013-06-17 06:53:00,
2013-06-17 03:08:00,80.9,76.0,29.96,ESE,104,0.0,-999.0,86,-99.99,,,0.00,weatherlink.com 1.10,2013-06-17 07:08:00,
2013-06-17 03:23:00,80.8,77.0,29.96,ESE,103,0.0,-999.0,87,-99.99,,,0.00,weatherlink.com 1.10,2013-06-17 07:23:00,
2013-06-17 03:38:00,80.9,77.0,29.96,ESE,103,0.0,-999.0,87,-99.99,,,0.00,weatherlink.com 1.10,2013-06-17 07:38:00,
2013-06-17 03:53:00,81.0,77.0,29.96,ESE,104,2.0,-999.0,87,-99.99,,,0.00,weatherlink.com 1.10,2013-06-17 07:53:00,
2013-06-17 04:08:00,81.1,77.0,29.96,ESE,104,0.0,-999.0,88,-99.99,,,0.00,weatherlink.com 1.10,2013-06-17 08:08:00,
2013-06-17 04:23:00,81.1,78.0,29.96,SE,138,3.0,-999.0,89,-99.99,,,0.00,weatherlink.com 1.10,2013-06-17 08:23:00,
2013-06-17 04:38:00,80.9,78.0,29.97,SE,145,0.0,-999.0,89,-99.99,,,0.00,weatherlink.com 1.10,2013-06-17 08:38:00,
2013-06-17 04:53:00,80.8,77.0,29.98,SE,145,2.0,-999.0,89,-99.99,,,0.00,weatherlink.com 1.10,2013-06-17 08:53:00,
2013-06-17 05:08:00,80.9,78.0,29.98,SE,145,0.0,-999.0,89,-99.99,,,0.00,weatherlink.com 1.10,2013-06-17 09:08:00,
2013-06-17 05:23:00,81.0,78.0,29.98,SE,145,2.0,-999.0,89,-99.99,,,0.00,weatherlink.com 1.10,2013-06-17 09:23:00,
2013-06-17 05:38:00,80.9,78.0,29.99,SE,145,1.0,-999.0,90,-99.99,,,0.00,weatherlink.com 1.10,2013-06-17 09:38:00,
2013-06-17 05:53:00,80.8,77.0,29.99,SE,145,0.0,-999.0,89,-99.99,,,0.00,weatherlink.com 1.10,2013-06-17 09:53:00,
2013-06-17 06:08:00,81.0,78.0,30.00,SE,145,1.0,-999.0,89,-99.99,,,0.00,weatherlink.com 1.10,2013-06-17 10:08:00,
2013-06-17 06:23:00,81.1,78.0,30.00,SE,145,2.0,-999.0,89,-99.99,,,0.00,weatherlink.com 1.10,2013-06-17 10:23:00,
2013-06-17 06:38:00,81.1,78.0,30.00,SE,145,0.0,-999.0,89,-99.99,,,0.00,weatherlink.com 1.10,2013-06-17 10:38:00,
2013-06-17 06:53:00,81.0,78.0,29.99,SE,145,0.0,-999.0,89,-99.99,,,0.00,weatherlink.com 1.10,2013-06-17 10:53:00,
2013-06-17 07:08:00,81.3,78.0,30.00,SE,145,0.0,-999.0,88,-99.99,,,0.00,weatherlink.com 1.10,2013-06-17 11:08:00,
2013-06-17 07:23:00,82.4,78.0,29.99,SE,145,0.0,-999.0,87,-99.99,,,0.00,weatherlink.com 1.10,2013-06-17 11:23:00,
2013-06-17 07:38:00,83.9,79.0,29.99,SE,145,0.0,-999.0,84,-99.99,,,0.00,weatherlink.com 1.10,2013-06-17 11:38:00,
2013-06-17 07:53:00,85.1,79.0,30.00,SE,145,1.0,-999.0,81,-99.99,,,0.00,weatherlink.com 1.10,2013-06-17 11:53:00,
2013-06-17 08:08:00,86.1,79.0,30.00,SE,145,0.0,-999.0,79,-99.99,,,0.00,weatherlink.com 1.10,2013-06-17 12:08:00,
2013-06-17 08:23:00,86.6,79.0,30.00,SE,145,0.0,-999.0,77,-99.99,,,0.00,weatherlink.com 1.10,2013-06-17 12:23:00,
2013-06-17 08:38:00,86.3,78.0,30.01,SE,145,0.0,-999.0,75,-99.99,,,0.00,weatherlink.com 1.10,2013-06-17 12:38:00,
2013-06-17 08:53:00,86.5,78.0,30.01,SE,145,0.0,-999.0,76,-99.99,,,0.00,weatherlink.com 1.10,2013-06-17 12:53:00,
2013-06-17 09:08:00,85.6,78.0,30.01,SSE,152,0.0,-999.0,79,-99.99,,,0.00,weatherlink.com 1.10,2013-06-17 13:08:00,
2013-06-17 09:23:00,85.6,78.0,30.00,SSE,154,2.0,-999.0,78,-99.99,,,0.00,weatherlink.com 1.10,2013-06-17 13:23:00,
2013-06-17 09:38:00,85.4,79.0,30.01,SSE,157,0.0,-999.0,80,-99.99,,,0.00,weatherlink.com 1.10,2013-06-17 13:38:00,
2013-06-17 09:53:00,85.7,79.0,30.01,SSE,160,1.0,-999.0,80,-99.99,,,0.00,weatherlink.com 1.10,2013-06-17 13:53:00,
2013-06-17 10:08:00,86.6,79.0,30.01,SSE,160,0.0,-999.0,78,-99.99,,,0.00,weatherlink.com 1.10,2013-06-17 14:08:00,
2013-06-17 10:23:00,86.8,78.0,30.01,SSE,164,7.0,-999.0,76,-99.99,,,0.00,weatherlink.com 1.10,2013-06-17 14:23:00,
2013-06-17 10:38:00,86.1,78.0,30.01,SSE,168,3.0,-999.0,77,-99.99,,,0.00,weatherlink.com 1.10,2013-06-17 14:38:00,
2013-06-17 10:53:00,87.1,79.0,30.01,SSE,168,0.0,-999.0,76,-99.99,,,0.00,weatherlink.com 1.10,2013-06-17 14:53:00,
2013-06-17 11:08:00,86.8,78.0,30.01,South,186,1.0,-999.0,76,-99.99,,,0.00,weatherlink.com 1.10,2013-06-17 15:08:00,
2013-06-17 11:23:00,87.1,78.0,30.02,South,186,0.0,-999.0,74,-99.99,,,0.00,weatherlink.com 1.10,2013-06-17 15:23:00,
2013-06-17 11:38:00,87.5,78.0,30.02,South,186,1.0,-999.0,73,-99.99,,,0.00,weatherlink.com 1.10,2013-06-17 15:38:00,
2013-06-17 11:53:00,88.0,78.0,30.01,South,190,1.0,-999.0,72,-99.99,,,0.00,weatherlink.com 1.10,2013-06-17 15:53:00,
2013-06-17 12:08:00,87.8,78.0,30.01,SSW,198,2.0,-999.0,73,-99.99,,,0.00,weatherlink.com 1.10,2013-06-17 16:08:00,
2013-06-17 12:23:00,88.3,78.0,30.01,SSW,198,2.0,-999.0,72,-99.99,,,0.00,weatherlink.com 1.10,2013-06-17 16:23:00,
2013-06-17 12:38:00,88.6,78.0,30.02,SSW,198,0.0,-999.0,71,-99.99,,,0.00,weatherlink.com 1.10,2013-06-17 16:38:00,
2013-06-17 12:53:00,88.6,78.0,30.02,SSW,206,1.0,-999.0,71,-99.99,,,0.00,weatherlink.com 1.10,2013-06-17 16:53:00,
2013-06-17 13:08:00,88.7,79.0,30.01,SSW,207,2.0,-999.0,72,-99.99,,,0.00,weatherlink.com 1.10,2013-06-17 17:08:00,
2013-06-17 13:23:00,88.8,79.0,30.01,SSW,206,1.0,-999.0,72,-99.99,,,0.00,weatherlink.com 1.10,2013-06-17 17:23:00,
2013-06-17 13:38:00,89.0,79.0,30.00,SSW,207,0.0,-999.0,73,-99.99,,,0.00,weatherlink.com 1.10,2013-06-17 17:38:00,
2013-06-17 13:54:00,89.0,79.0,30.00,SW,215,3.0,-999.0,73,-99.99,,,0.00,weatherlink.com 1.10,2013-06-17 17:54:00,
2013-06-17 14:08:00,89.2,79.0,30.00,SW,233,0.0,-999.0,72,-99.99,,,0.00,weatherlink.com 1.10,2013-06-17 18:08:00,
2013-06-17 14:23:00,89.0,78.0,29.99,SW,233,2.0,-999.0,71,-99.99,,,0.00,weatherlink.com 1.10,2013-06-17 18:23:00,
2013-06-17 14:39:00,88.9,78.0,29.99,SW,235,0.0,-999.0,71,-99.99,,,0.00,weatherlink.com 1.10,2013-06-17 18:39:00,
2013-06-17 14:53:00,88.9,78.0,29.99,SW,235,1.0,-999.0,71,-99.99,,,0.00,weatherlink.com 1.10,2013-06-17 18:53:00,
2013-06-17 15:08:00,88.9,78.0,29.99,SW,235,0.0,-999.0,70,-99.99,,,0.00,weatherlink.com 1.10,2013-06-17 19:08:00,
2013-06-17 15:24:00,89.0,78.0,29.98,SW,235,0.0,-999.0,70,-99.99,,,0.00,weatherlink.com 1.10,2013-06-17 19:24:00,
2013-06-17 15:39:00,89.1,78.0,29.98,SW,234,0.0,-999.0,70,-99.99,,,0.00,weatherlink.com 1.10,2013-06-17 19:39:00,
2013-06-17 15:54:00,88.9,78.0,29.98,WSW,248,1.0,-999.0,70,-99.99,,,0.00,weatherlink.com 1.10,2013-06-17 19:54:00,
2013-06-17 16:09:00,88.8,78.0,29.98,WSW,248,2.0,-999.0,70,-99.99,,,0.00,weatherlink.com 1.10,2013-06-17 20:09:00,
2013-06-17 16:24:00,88.7,78.0,29.98,WSW,248,0.0,-999.0,71,-99.99,,,0.00,weatherlink.com 1.10,2013-06-17 20:24:00,
2013-06-17 16:39:00,88.9,78.0,29.97,WSW,247,2.0,-999.0,71,-99.99,,,0.00,weatherlink.com 1.10,2013-06-17 20:39:00,
2013-06-17 16:54:00,88.6,78.0,29.96,SW,230,1.0,-999.0,71,-99.99,,,0.00,weatherlink.com 1.10,2013-06-17 20:54:00,
2013-06-17 17:09:00,88.5,78.0,29.95,SW,230,2.0,-999.0,72,-99.99,,,0.00,weatherlink.com 1.10,2013-06-17 21:09:00,
2013-06-17 17:24:00,88.3,78.0,29.95,SW,229,1.0,-999.0,71,-99.99,,,0.00,weatherlink.com 1.10,2013-06-17 21:24:00,
2013-06-17 17:39:00,88.2,77.0,29.95,WSW,240,2.0,-999.0,70,-99.99,,,0.00,weatherlink.com 1.10,2013-06-17 21:39:00,
2013-06-17 17:54:00,87.8,77.0,29.95,WSW,240,1.0,-999.0,70,-99.99,,,0.00,weatherlink.com 1.10,2013-06-17 21:54:00,
2013-06-17 18:09:00,87.6,78.0,29.94,West,261,0.0,-999.0,72,-99.99,,,0.00,weatherlink.com 1.10,2013-06-17 22:09:00,
2013-06-17 18:24:00,87.7,78.0,29.95,West,259,0.0,-999.0,72,-99.99,,,0.00,weatherlink.com 1.10,2013-06-17 22:24:00,
2013-06-17 18:39:00,87.2,78.0,29.95,West,264,1.0,-999.0,73,-99.99,,,0.00,weatherlink.com 1.10,2013-06-17 22:39:00,
2013-06-17 18:54:00,86.9,78.0,29.95,West,263,0.0,-999.0,74,-99.99,,,0.00,weatherlink.com 1.10,2013-06-17 22:54:00,
2013-06-17 19:09:00,86.6,77.0,29.96,West,267,1.0,-999.0,74,-99.99,,,0.00,weatherlink.com 1.10,2013-06-17 23:09:00,
2013-06-17 19:24:00,86.2,77.0,29.96,West,278,1.0,-999.0,75,-99.99,,,0.00,weatherlink.com 1.10,2013-06-17 23:24:00,
2013-06-17 19:39:00,86.1,78.0,29.96,West,275,1.0,-999.0,77,-99.99,,,0.00,weatherlink.com 1.10,2013-06-17 23:39:00,
2013-06-17 19:54:00,85.7,78.0,29.96,West,273,3.0,-999.0,77,-99.99,,,0.00,weatherlink.com 1.10,2013-06-17 23:54:00,
2013-06-17 20:09:00,85.4,78.0,29.97,West,273,0.0,-999.0,78,-99.99,,,0.00,weatherlink.com 1.10,2013-06-18 00:09:00,
2013-06-17 20:24:00,85.0,77.0,29.97,West,273,2.0,-999.0,78,-99.99,,,0.00,weatherlink.com 1.10,2013-06-18 00:24:00,
2013-06-17 20:39:00,84.6,77.0,29.97,West,279,1.0,-999.0,78,-99.99,,,0.00,weatherlink.com 1.10,2013-06-18 00:39:00,
2013-06-17 20:54:00,84.3,77.0,29.97,West,276,1.0,-999.0,79,-99.99,,,0.00,weatherlink.com 1.10,2013-06-18 00:54:00,
2013-06-17 21:09:00,84.2,77.0,29.98,WNW,283,0.0,-999.0,79,-99.99,,,0.00,weatherlink.com 1.10,2013-06-18 01:09:00,
2013-06-17 21:24:00,84.0,77.0,29.99,WNW,286,2.0,-999.0,79,-99.99,,,0.00,weatherlink.com 1.10,2013-06-18 01:24:00,
2013-06-17 21:39:00,83.9,77.0,29.98,WNW,286,1.0,-999.0,80,-99.99,,,0.00,weatherlink.com 1.10,2013-06-18 01:39:00,
2013-06-17 21:54:00,83.7,77.0,29.98,West,278,4.0,-999.0,80,-99.99,,,0.00,weatherlink.com 1.10,2013-06-18 01:54:00,
2013-06-17 22:09:00,83.6,77.0,29.99,West,277,4.0,-999.0,80,-99.99,,,0.00,weatherlink.com 1.10,2013-06-18 02:09:00,
2013-06-17 22:24:00,83.6,77.0,30.00,West,280,0.0,-999.0,81,-99.99,,,0.00,weatherlink.com 1.10,2013-06-18 02:24:00,
2013-06-17 22:39:00,83.5,77.0,30.00,West,281,1.0,-999.0,81,-99.99,,,0.00,weatherlink.com 1.10,2013-06-18 02:39:00,
2013-06-17 22:54:00,83.4,77.0,30.00,West,281,0.0,-999.0,82,-99.99,,,0.00,weatherlink.com 1.10,2013-06-18 02:54:00,
2013-06-17 23:09:00,83.2,77.0,30.00,West,281,0.0,-999.0,81,-99.99,,,0.00,weatherlink.com 1.10,2013-06-18 03:09:00,
2013-06-17 23:24:00,83.2,76.0,30.00,West,280,0.0,-999.0,80,-99.99,,,0.00,weatherlink.com 1.10,2013-06-18 03:24:00,
2013-06-17 23:39:00,83.1,76.0,30.00,West,280,2.0,-999.0,80,-99.99,,,0.00,weatherlink.com 1.10,2013-06-18 03:39:00,
2013-06-17 23:54:00,83.1,76.0,30.00,West,281,0.0,-999.0,80,-99.99,,,0.00,weatherlink.com 1.10,2013-06-18 03:54:00,